De Sui — BSFU — position and weather

sailwx.info

Track history (hours):
 
Tides and Currents Weather Stations Pressure Air Temp Water Temp Dewpoint Dewpoint Depression Visibility Wind Speed Wind Dir Waves Ship Positions

De Sui

Last reported at 2017-Aug-16 05:45 UTC. Time now 2017-Aug-16 15:16 UTC.
Position N 22°52' E 113°33'.

Length 65 m; draft 4.8 m.

Type: Sailing vessel. MMSI: 413070000.

Date/timePositionNaut miles runAvg speedWind from/ knotsBaromVisibWave heightAir tempDewpointWater temp
2017-Aug-16 05:45N 22°52' E 113°33'0 0.1
2017-Aug-16 05:27N 22°52' E 113°33'0 0.3
2017-Aug-16 04:58N 22°52' E 113°32'0 0.1
2017-Aug-16 04:29N 22°52' E 113°32'0 0.2
2017-Aug-16 03:58N 22°52' E 113°33'0 0.0
2017-Aug-16 02:28N 22°52' E 113°33'0 0.0
2017-Aug-16 01:59N 22°52' E 113°33'0 0.0
2017-Aug-16 00:56N 22°52' E 113°33'0 0.0
2017-Aug-15 00:06N 22°52' E 113°33'0 0.0
2017-Aug-14 23:49N 22°52' E 113°33'0 0.0
2017-Aug-14 23:22N 22°52' E 113°33'0 0.0
2017-Aug-14 21:14N 22°52' E 113°33'0 0.0
2017-Aug-14 20:55N 22°52' E 113°33'0 0.0
2017-Aug-14 20:29N 22°52' E 113°33'0 0.0
2017-Aug-14 19:51N 22°52' E 113°33'0 0.0
2017-Aug-14 19:27N 22°52' E 113°33'0 0.0
2017-Aug-14 18:53N 22°52' E 113°33'0 0.0
2017-Aug-14 18:30N 22°52' E 113°33'0 0.0
2017-Aug-14 14:34N 22°52' E 113°33'0 0.7
2017-Aug-14 14:12N 22°52' E 113°33'1 5.0
2017-Aug-14 14:00N 22°52' E 113°34'5 8.0
2017-Aug-14 13:23N 22°48' E 113°37'4 0.1
2017-Aug-12 18:55N 22°51' E 113°34'2 4.1
2017-Aug-12 18:30N 22°52' E 113°33'0 0.0
2017-Aug-12 17:58N 22°52' E 113°33'0 0.0
2017-Aug-12 17:26N 22°52' E 113°33'0 0.0
2017-Aug-12 16:56N 22°52' E 113°33'0 0.0
2017-Aug-12 16:30N 22°52' E 113°33'0 0.0
2017-Aug-12 16:00N 22°52' E 113°33'0 0.0
2017-Aug-12 15:27N 22°52' E 113°33'0 0.0
2017-Aug-12 14:57N 22°52' E 113°33'0 0.0
2017-Aug-12 14:30N 22°52' E 113°33'0 0.0
2017-Aug-12 14:00N 22°52' E 113°33'0 0.0
2017-Aug-12 13:26N 22°52' E 113°33'0 0.0
2017-Aug-12 12:58N 22°52' E 113°33'0 0.0
2017-Aug-12 12:23N 22°52' E 113°33'0 0.0
2017-Aug-12 11:56N 22°52' E 113°33'0 0.0
2017-Aug-12 11:28N 22°52' E 113°33'0 0.0
2017-Aug-12 10:39N 22°52' E 113°33'0 0.0
2017-Aug-12 10:17N 22°52' E 113°33'0 0.0
2017-Aug-12 08:14N 22°52' E 113°33'0 0.0
2017-Aug-12 07:55N 22°52' E 113°33'0 0.0
2017-Aug-12 06:44N 22°52' E 113°33'0 0.0
2017-Aug-12 06:27N 22°52' E 113°33'0 0.0
2017-Aug-12 05:58N 22°52' E 113°33'0 0.0
2017-Aug-12 05:30N 22°52' E 113°33'0 0.0
2017-Aug-12 05:00N 22°52' E 113°33'0 0.0
2017-Aug-12 04:27N 22°52' E 113°33'0 0.1
2017-Aug-12 04:00N 22°52' E 113°33'2 2.9
2017-Aug-12 03:28N 22°53' E 113°34'4 7.6
2017-Aug-12 03:00N 22°56' E 113°33'4 8.6
2017-Aug-12 02:30N 23°00' E 113°31'4 7.6
2017-Aug-12 02:00N 23°04' E 113°29'4 7.4
2017-Aug-12 01:30N 23°04' E 113°25'  
2017-Aug-06 14:32N 23°03' E 113°21'  
Track history (hours):
 
Tides and Currents Weather Stations Pressure Air Temp Water Temp Dewpoint Dewpoint Depression Visibility Wind Speed Wind Dir Waves Ship Positions

De Sui

Last reported at 2017-Aug-16 05:45 UTC. Time now 2017-Aug-16 15:16 UTC.
Position N 22°52' E 113°33'.

Length 65 m; draft 4.8 m.

Type: Sailing vessel. MMSI: 413070000.

Date/timePositionNaut miles runAvg speedWind from/ knotsBaromVisibWave heightAir tempDewpointWater temp
2017-Aug-16 05:45N 22°52' E 113°33'0 0.1
2017-Aug-16 05:27N 22°52' E 113°33'0 0.3
2017-Aug-16 04:58N 22°52' E 113°32'0 0.1
2017-Aug-16 04:29N 22°52' E 113°32'0 0.2
2017-Aug-16 03:58N 22°52' E 113°33'0 0.0
2017-Aug-16 02:28N 22°52' E 113°33'0 0.0
2017-Aug-16 01:59N 22°52' E 113°33'0 0.0
2017-Aug-16 00:56N 22°52' E 113°33'0 0.0
2017-Aug-15 00:06N 22°52' E 113°33'0 0.0
2017-Aug-14 23:49N 22°52' E 113°33'0 0.0
2017-Aug-14 23:22N 22°52' E 113°33'0 0.0
2017-Aug-14 21:14N 22°52' E 113°33'0 0.0
2017-Aug-14 20:55N 22°52' E 113°33'0 0.0
2017-Aug-14 20:29N 22°52' E 113°33'0 0.0
2017-Aug-14 19:51N 22°52' E 113°33'0 0.0
2017-Aug-14 19:27N 22°52' E 113°33'0 0.0
2017-Aug-14 18:53N 22°52' E 113°33'0 0.0
2017-Aug-14 18:30N 22°52' E 113°33'0 0.0
2017-Aug-14 14:34N 22°52' E 113°33'0 0.7
2017-Aug-14 14:12N 22°52' E 113°33'1 5.0
2017-Aug-14 14:00N 22°52' E 113°34'5 8.0
2017-Aug-14 13:23N 22°48' E 113°37'4 0.1
2017-Aug-12 18:55N 22°51' E 113°34'2 4.1
2017-Aug-12 18:30N 22°52' E 113°33'0 0.0
2017-Aug-12 17:58N 22°52' E 113°33'0 0.0
2017-Aug-12 17:26N 22°52' E 113°33'0 0.0
2017-Aug-12 16:56N 22°52' E 113°33'0 0.0
2017-Aug-12 16:30N 22°52' E 113°33'0 0.0
2017-Aug-12 16:00N 22°52' E 113°33'0 0.0
2017-Aug-12 15:27N 22°52' E 113°33'0 0.0
2017-Aug-12 14:57N 22°52' E 113°33'0 0.0
2017-Aug-12 14:30N 22°52' E 113°33'0 0.0
2017-Aug-12 14:00N 22°52' E 113°33'0 0.0
2017-Aug-12 13:26N 22°52' E 113°33'0 0.0
2017-Aug-12 12:58N 22°52' E 113°33'0 0.0
2017-Aug-12 12:23N 22°52' E 113°33'0 0.0
2017-Aug-12 11:56N 22°52' E 113°33'0 0.0
2017-Aug-12 11:28N 22°52' E 113°33'0 0.0
2017-Aug-12 10:39N 22°52' E 113°33'0 0.0
2017-Aug-12 10:17N 22°52' E 113°33'0 0.0
2017-Aug-12 08:14N 22°52' E 113°33'0 0.0
2017-Aug-12 07:55N 22°52' E 113°33'0 0.0
2017-Aug-12 06:44N 22°52' E 113°33'0 0.0
2017-Aug-12 06:27N 22°52' E 113°33'0 0.0
2017-Aug-12 05:58N 22°52' E 113°33'0 0.0
2017-Aug-12 05:30N 22°52' E 113°33'0 0.0
2017-Aug-12 05:00N 22°52' E 113°33'0 0.0
2017-Aug-12 04:27N 22°52' E 113°33'0 0.1
2017-Aug-12 04:00N 22°52' E 113°33'2 2.9
2017-Aug-12 03:28N 22°53' E 113°34'4 7.6
2017-Aug-12 03:00N 22°56' E 113°33'4 8.6
2017-Aug-12 02:30N 23°00' E 113°31'4 7.6
2017-Aug-12 02:00N 23°04' E 113°29'4 7.4
2017-Aug-12 01:30N 23°04' E 113°25'  
2017-Aug-06 14:32N 23°03' E 113°21'  

Dump ship's entire track history